createdAt,value
2022-10-12T00:01:07.595Z,21.98
2022-10-12T00:03:35.005Z,26.98
2022-10-12T00:06:02.365Z,25.38
2022-10-12T00:08:29.595Z,20.00
2022-10-12T00:10:56.168Z,24.30
2022-10-12T00:13:22.769Z,21.15
2022-10-12T00:15:49.579Z,22.70
2022-10-12T00:18:16.196Z,26.70
2022-10-12T00:20:42.717Z,26.80
2022-10-12T00:23:09.190Z,25.05
2022-10-12T00:25:39.759Z,25.42
2022-10-12T00:28:07.101Z,26.45
2022-10-12T00:30:34.796Z,27.60
2022-10-12T00:33:01.239Z,26.98
2022-10-12T00:35:30.843Z,25.73
2022-10-12T00:37:57.860Z,26.50
2022-10-12T00:40:24.363Z,24.45
2022-10-12T00:42:50.783Z,22.20
2022-10-12T00:45:17.471Z,27.42
2022-10-12T00:47:52.296Z,25.83
2022-10-12T00:50:24.905Z,25.10
2022-10-12T00:52:54.261Z,25.17
2022-10-12T00:55:23.301Z,23.88
2022-10-12T00:57:52.892Z,25.70
2022-10-12T01:00:20.063Z,24.75
2022-10-12T01:02:51.840Z,23.80
2022-10-12T01:05:18.783Z,22.33
2022-10-12T01:07:45.430Z,26.77
2022-10-12T01:10:12.266Z,19.80
2022-10-12T01:12:42.427Z,19.13
2022-10-12T01:15:10.480Z,23.55
2022-10-12T01:17:53.948Z,21.02
2022-10-12T01:20:23.437Z,22.73
2022-10-12T01:23:19.045Z,18.65
2022-10-12T01:26:00.730Z,19.35
2022-10-12T01:28:55.577Z,19.60
2022-10-12T01:31:36.388Z,17.08
2022-10-12T01:34:17.225Z,20.40
2022-10-12T01:36:49.658Z,17.15
2022-10-12T01:39:25.160Z,21.08
2022-10-12T01:41:56.132Z,17.13
2022-10-12T01:44:26.739Z,21.50
2022-10-12T01:46:55.035Z,19.05
2022-10-12T01:49:34.638Z,18.60
2022-10-12T01:52:29.831Z,19.92
2022-10-12T01:55:04.764Z,18.73
2022-10-12T01:57:49.542Z,21.20
2022-10-12T02:00:17.191Z,22.08
2022-10-12T02:03:18.860Z,21.33
2022-10-12T02:05:50.712Z,21.20
2022-10-12T02:08:30.224Z,20.95
2022-10-12T02:10:56.671Z,25.52
2022-10-12T02:13:26.320Z,22.90
2022-10-12T02:15:54.234Z,20.95
2022-10-12T02:18:22.766Z,22.58
2022-10-12T02:20:52.861Z,23.63
2022-10-12T02:23:23.041Z,22.75
2022-10-12T02:25:51.652Z,21.15
2022-10-12T02:28:23.981Z,21.08
2022-10-12T02:31:15.153Z,21.77
2022-10-12T02:34:06.581Z,23.38
2022-10-12T02:36:44.541Z,22.92
2022-10-12T02:39:17.012Z,20.80
2022-10-12T02:41:48.953Z,19.52
2022-10-12T02:44:23.177Z,23.75
2022-10-12T02:46:51.715Z,23.02
2022-10-12T02:49:19.129Z,32.33
2022-10-12T02:51:46.459Z,22.55
2022-10-12T02:54:13.157Z,23.77
2022-10-12T02:56:47.107Z,22.50
2022-10-12T02:59:16.141Z,20.77
2022-10-12T03:01:42.929Z,23.23
2022-10-12T03:04:09.862Z,21.13
2022-10-12T03:06:36.395Z,17.65
2022-10-12T03:09:05.093Z,22.30
2022-10-12T03:11:32.008Z,23.25
2022-10-12T03:13:58.461Z,21.98
2022-10-12T03:16:27.010Z,22.42
2022-10-12T03:18:53.460Z,20.67
2022-10-12T03:21:19.943Z,20.30
2022-10-12T03:23:46.362Z,25.75
2022-10-12T03:26:12.757Z,42.05
2022-10-12T03:28:39.226Z,35.35
2022-10-12T03:31:05.635Z,26.92
2022-10-12T03:33:32.027Z,21.25
2022-10-12T03:35:59.689Z,20.55
2022-10-12T03:38:28.821Z,20.88
2022-10-12T03:40:55.230Z,20.17
2022-10-12T03:43:21.705Z,23.90
2022-10-12T03:45:48.236Z,21.67
2022-10-12T03:48:14.715Z,26.38
2022-10-12T03:50:41.235Z,30.00
2022-10-12T03:53:10.024Z,32.42
2022-10-12T03:55:38.959Z,26.98
2022-10-12T03:58:05.424Z,24.02
2022-10-12T04:00:32.177Z,17.52
2022-10-12T04:02:58.799Z,25.08
2022-10-12T04:05:25.466Z,19.58
2022-10-12T04:07:51.946Z,16.52
2022-10-12T04:10:18.404Z,17.13
2022-10-12T04:12:45.624Z,21.88
2022-10-12T04:15:12.231Z,18.95
2022-10-12T04:17:39.181Z,20.20
2022-10-12T04:20:06.832Z,21.17
2022-10-12T04:22:33.456Z,17.00
2022-10-12T04:24:59.821Z,18.00
2022-10-12T04:27:26.236Z,18.38
2022-10-12T04:29:52.626Z,16.63
2022-10-12T04:32:19.106Z,19.92
2022-10-12T04:34:45.561Z,21.90
2022-10-12T04:37:11.953Z,19.95
2022-10-12T04:39:38.387Z,17.20
2022-10-12T04:42:06.831Z,20.48
2022-10-12T04:44:33.566Z,20.05
2022-10-12T04:47:03.015Z,19.35
2022-10-12T04:49:29.485Z,19.23
2022-10-12T04:51:55.934Z,19.70
2022-10-12T04:54:22.356Z,19.25
2022-10-12T04:56:48.783Z,19.67
2022-10-12T04:59:15.447Z,22.02
2022-10-12T05:01:42.048Z,25.30
2022-10-12T05:04:08.749Z,17.15
2022-10-12T05:06:35.169Z,18.58
2022-10-12T05:09:01.640Z,18.88
2022-10-12T05:11:28.021Z,19.52
2022-10-12T05:13:54.461Z,20.02
2022-10-12T05:16:20.969Z,23.05
2022-10-12T05:18:47.833Z,27.73
2022-10-12T05:21:14.316Z,23.15
2022-10-12T05:23:40.850Z,18.70
2022-10-12T05:26:07.374Z,20.45
2022-10-12T05:28:38.309Z,20.90
2022-10-12T05:31:07.166Z,25.02
2022-10-12T05:33:33.556Z,23.90
2022-10-12T05:35:59.989Z,23.08
2022-10-12T05:38:26.378Z,19.05
2022-10-12T05:40:57.710Z,26.73
2022-10-12T05:45:53.042Z,24.60
2022-10-12T05:48:19.493Z,15.50
2022-10-12T05:50:45.924Z,24.10
2022-10-12T05:53:12.315Z,19.05
2022-10-12T05:55:51.896Z,23.42
2022-10-12T05:58:18.305Z,19.17
2022-10-12T06:00:47.118Z,23.50
2022-10-12T06:03:14.802Z,22.35
2022-10-12T06:05:44.021Z,16.70
2022-10-12T06:08:11.041Z,20.63
2022-10-12T06:13:10.974Z,21.20
2022-10-12T06:15:37.391Z,25.42
2022-10-12T06:18:03.923Z,20.02
2022-10-12T06:20:30.337Z,19.77
2022-10-12T06:22:56.778Z,19.83
2022-10-12T06:25:23.198Z,23.60
2022-10-12T06:27:49.630Z,34.03
2022-10-12T06:30:16.220Z,26.27
2022-10-12T06:32:42.639Z,25.20
2022-10-12T06:35:09.875Z,22.25
2022-10-12T06:37:51.520Z,21.05
2022-10-12T06:40:20.787Z,18.27
2022-10-12T06:42:56.194Z,21.13
2022-10-12T06:45:27.326Z,26.23
2022-10-12T06:47:56.515Z,23.75
2022-10-12T06:50:23.133Z,18.33
2022-10-12T06:52:49.597Z,21.25
2022-10-12T06:55:16.248Z,20.58
2022-10-12T06:57:42.723Z,20.05
2022-10-12T07:00:09.890Z,19.42
2022-10-12T07:02:36.915Z,20.33
2022-10-12T07:05:04.243Z,21.17
2022-10-12T07:07:35.121Z,23.35
2022-10-12T07:10:01.893Z,18.33
2022-10-12T07:12:30.677Z,20.60
2022-10-12T07:14:58.366Z,18.50
2022-10-12T07:17:24.792Z,26.98
2022-10-12T07:19:51.232Z,23.55
2022-10-12T07:22:17.651Z,20.48
2022-10-12T07:24:44.077Z,25.23
2022-10-12T07:27:11.739Z,30.25
2022-10-12T07:29:38.999Z,23.00
2022-10-12T07:32:06.726Z,16.88
2022-10-12T07:34:33.688Z,18.92
2022-10-12T07:37:00.203Z,22.50
2022-10-12T07:39:27.238Z,19.95
2022-10-12T07:41:54.372Z,20.63
2022-10-12T07:44:24.429Z,26.13
2022-10-12T07:46:51.246Z,19.98
2022-10-12T07:49:18.258Z,27.80
2022-10-12T07:51:46.420Z,20.08
2022-10-12T07:54:19.026Z,24.70
2022-10-12T07:56:47.001Z,18.17
2022-10-12T07:59:13.430Z,21.88
2022-10-12T08:01:39.960Z,25.08
2022-10-12T08:04:06.456Z,31.70
2022-10-12T08:06:34.252Z,20.85
2022-10-12T08:09:01.785Z,19.02
2022-10-12T08:11:28.917Z,21.85
2022-10-12T08:13:57.941Z,19.63
2022-10-12T08:16:24.357Z,19.63
2022-10-12T08:18:51.100Z,18.88
2022-10-12T08:21:18.309Z,25.85
2022-10-12T08:23:45.574Z,25.42
2022-10-12T08:26:17.926Z,18.35
2022-10-12T08:28:47.397Z,22.75
2022-10-12T08:31:17.721Z,21.20
2022-10-12T08:33:44.589Z,20.20
2022-10-12T08:36:12.455Z,18.00
2022-10-12T08:38:39.477Z,18.10
2022-10-12T08:41:37.000Z,20.17
2022-10-12T08:44:09.405Z,19.13
2022-10-12T08:46:36.078Z,22.95
2022-10-12T08:49:14.734Z,21.85
2022-10-12T08:51:49.406Z,19.15
2022-10-12T08:54:20.581Z,17.88
2022-10-12T08:56:47.108Z,23.63
2022-10-12T08:59:16.064Z,24.33
2022-10-12T09:01:51.424Z,20.38
2022-10-12T09:04:55.584Z,18.23
2022-10-12T09:07:27.384Z,20.17
2022-10-12T09:10:31.784Z,23.75
2022-10-12T09:13:16.928Z,21.15
2022-10-12T09:15:58.995Z,22.95
2022-10-12T09:18:48.828Z,21.58
2022-10-12T09:21:20.816Z,18.73
2022-10-12T09:23:48.310Z,19.98
2022-10-12T09:26:20.698Z,25.73
2022-10-12T09:28:57.909Z,20.38
2022-10-12T09:31:42.178Z,21.13
2022-10-12T09:34:10.158Z,20.15
2022-10-12T09:36:39.628Z,18.00
2022-10-12T09:39:12.668Z,18.75
2022-10-12T09:41:45.561Z,20.48
2022-10-12T09:44:36.946Z,25.40
2022-10-12T09:47:23.458Z,31.95
2022-10-12T09:49:52.123Z,21.23
2022-10-12T09:52:46.110Z,15.82
2022-10-12T09:55:15.937Z,20.65
2022-10-12T09:57:53.808Z,20.45
2022-10-12T10:00:29.280Z,18.88
2022-10-12T10:02:56.470Z,21.30
2022-10-12T10:05:31.895Z,20.65
2022-10-12T10:08:19.361Z,21.02
2022-10-12T10:10:51.165Z,31.25
2022-10-12T10:13:18.012Z,22.75
2022-10-12T10:15:49.690Z,17.55
2022-10-12T10:18:33.529Z,16.65
2022-10-12T10:21:01.979Z,21.88
2022-10-12T10:23:36.847Z,18.15
2022-10-12T10:26:08.083Z,19.45
2022-10-12T10:28:40.311Z,19.85
2022-10-12T10:31:13.827Z,17.45
2022-10-12T10:33:40.703Z,17.98
2022-10-12T10:36:18.630Z,23.88
2022-10-12T10:38:54.684Z,26.05
2022-10-12T10:41:27.520Z,21.92
2022-10-12T10:43:54.809Z,22.10
2022-10-12T10:46:28.140Z,21.75
2022-10-12T10:49:06.181Z,21.15
2022-10-12T10:51:51.808Z,26.50
2022-10-12T10:54:26.766Z,16.60
2022-10-12T10:57:01.941Z,17.85
2022-10-12T10:59:54.301Z,18.45
2022-10-12T11:02:30.585Z,20.95
2022-10-12T11:05:07.925Z,20.05
2022-10-12T11:08:17.195Z,19.90
2022-10-12T11:10:57.973Z,24.73
2022-10-12T11:13:46.533Z,29.92
2022-10-12T11:16:39.950Z,20.38
2022-10-12T11:19:30.285Z,26.63
2022-10-12T11:22:04.731Z,24.27
2022-10-12T11:24:43.220Z,25.08
2022-10-12T11:27:20.174Z,25.75
2022-10-12T11:29:58.132Z,30.42
2022-10-12T11:32:37.552Z,19.80
2022-10-12T11:35:10.250Z,18.80
2022-10-12T11:37:47.598Z,23.60
2022-10-12T11:40:47.654Z,18.05
2022-10-12T11:43:20.285Z,17.42
2022-10-12T11:45:52.073Z,16.85
2022-10-12T11:48:27.298Z,15.65
2022-10-12T11:51:03.917Z,23.52
2022-10-12T11:53:42.886Z,22.33
2022-10-12T11:56:39.834Z,18.45
2022-10-12T11:59:19.256Z,17.60
2022-10-12T12:01:58.085Z,17.55
2022-10-12T12:04:43.970Z,25.00
2022-10-12T12:07:22.906Z,22.60
2022-10-12T12:09:51.007Z,18.58
2022-10-12T12:12:26.943Z,18.88
2022-10-12T12:14:53.369Z,18.67
2022-10-12T12:17:19.777Z,19.33
2022-10-12T12:19:55.329Z,19.58
2022-10-12T12:22:28.794Z,17.65
2022-10-12T12:25:04.574Z,23.23
2022-10-12T12:27:33.914Z,19.40
2022-10-12T12:30:03.371Z,30.83
2022-10-12T12:33:22.605Z,24.25
2022-10-12T12:36:00.628Z,19.02
2022-10-12T12:38:36.501Z,19.40
2022-10-12T12:41:10.549Z,22.98
2022-10-12T12:43:57.307Z,24.58
2022-10-12T12:46:45.177Z,24.15
2022-10-12T12:49:44.492Z,26.63
2022-10-12T12:52:14.370Z,18.20
2022-10-12T12:55:16.217Z,26.95
2022-10-12T12:58:06.827Z,19.52
2022-10-12T13:01:14.804Z,22.25
2022-10-12T13:04:02.875Z,18.95
2022-10-12T13:07:06.266Z,19.80
2022-10-12T13:09:53.263Z,19.52
2022-10-12T13:12:32.859Z,21.90
2022-10-12T13:15:16.177Z,19.00
2022-10-12T13:17:57.951Z,19.88
2022-10-12T13:20:37.506Z,28.10
2022-10-12T13:23:09.219Z,21.48
2022-10-12T13:25:46.074Z,20.10
2022-10-12T13:28:18.510Z,21.63
2022-10-12T13:30:54.065Z,18.65
2022-10-12T13:33:32.742Z,16.20
2022-10-12T13:36:07.304Z,18.52
2022-10-12T13:38:38.526Z,24.05
2022-10-12T13:41:13.258Z,18.40
2022-10-12T13:44:03.080Z,24.45
2022-10-12T13:47:04.392Z,19.65
2022-10-12T13:49:41.505Z,18.95
2022-10-12T13:52:13.786Z,14.75
2022-10-12T13:54:48.805Z,14.32
2022-10-12T13:57:41.642Z,14.07
2022-10-12T14:00:14.119Z,15.27
2022-10-12T14:02:41.106Z,12.07
2022-10-12T14:05:20.933Z,13.07
2022-10-12T14:07:51.239Z,14.95
2022-10-12T14:10:26.721Z,13.82
2022-10-12T14:12:54.490Z,15.38
2022-10-12T14:15:25.861Z,15.98
2022-10-12T14:17:52.487Z,13.38
2022-10-12T14:20:39.860Z,18.38
2022-10-12T14:23:21.973Z,15.07
2022-10-12T14:25:57.031Z,15.98
2022-10-12T14:28:31.135Z,15.45
2022-10-12T14:30:57.673Z,17.40
2022-10-12T14:33:26.122Z,18.90
2022-10-12T14:36:12.127Z,17.27
2022-10-12T14:38:38.579Z,17.05
2022-10-12T14:41:42.558Z,17.60
2022-10-12T14:44:10.815Z,19.48
2022-10-12T14:47:07.418Z,19.52
2022-10-12T14:49:44.133Z,16.15
2022-10-12T14:52:25.832Z,16.85
2022-10-12T14:57:30.066Z,16.90
2022-10-12T14:59:57.565Z,11.95
2022-10-12T15:02:33.264Z,17.65
2022-10-12T15:04:59.890Z,16.98
2022-10-12T15:07:31.211Z,20.05
2022-10-12T15:10:00.443Z,16.85
2022-10-12T15:12:29.282Z,16.48
2022-10-12T15:14:57.156Z,13.77
2022-10-12T15:17:23.715Z,16.08
2022-10-12T15:19:51.677Z,16.10
2022-10-12T15:22:23.531Z,15.20
2022-10-12T15:24:54.052Z,15.70
2022-10-12T15:27:22.906Z,16.38
2022-10-12T15:29:52.152Z,17.65
2022-10-12T15:32:19.271Z,15.88
2022-10-12T15:34:45.839Z,14.40
2022-10-12T15:37:12.315Z,31.92
2022-10-12T15:39:39.054Z,17.58
2022-10-12T15:42:05.668Z,22.77
2022-10-12T15:44:38.963Z,19.73
2022-10-12T15:47:05.446Z,20.17
2022-10-12T15:49:32.034Z,17.45
2022-10-12T15:51:58.523Z,14.52
2022-10-12T15:54:25.035Z,24.48
2022-10-12T15:56:51.534Z,17.13
2022-10-12T15:59:18.027Z,21.23
2022-10-12T16:01:45.002Z,15.43
2022-10-12T16:04:15.244Z,19.20
2022-10-12T16:06:43.931Z,18.15
2022-10-12T16:09:10.436Z,17.40
2022-10-12T16:11:37.205Z,22.10
2022-10-12T16:14:03.685Z,24.98
2022-10-12T16:16:31.918Z,18.83
2022-10-12T16:19:00.797Z,18.05
2022-10-12T16:21:29.697Z,20.50
2022-10-12T16:23:56.230Z,18.00
2022-10-12T16:26:22.707Z,14.95
2022-10-12T16:28:49.311Z,18.45
2022-10-12T16:31:17.802Z,14.60
2022-10-12T16:33:44.830Z,12.00
2022-10-12T16:36:14.398Z,16.48
2022-10-12T16:38:41.758Z,13.57
2022-10-12T16:41:13.545Z,13.45
2022-10-12T16:43:40.604Z,15.27
2022-10-12T16:46:08.248Z,14.82
2022-10-12T16:48:35.170Z,13.90
2022-10-12T16:51:01.830Z,20.95
2022-10-12T16:53:30.840Z,13.82
2022-10-12T16:55:57.330Z,12.00
2022-10-12T16:58:23.859Z,13.65
2022-10-12T17:00:50.391Z,17.58
2022-10-12T17:03:16.905Z,15.75
2022-10-12T17:05:43.517Z,18.73
2022-10-12T17:08:15.034Z,17.17
2022-10-12T17:10:45.578Z,24.90
2022-10-12T17:13:13.531Z,23.35
2022-10-12T17:15:41.469Z,18.77
2022-10-12T17:18:08.669Z,20.20
2022-10-12T17:20:36.170Z,18.42
2022-10-12T17:23:03.026Z,14.07
2022-10-12T17:25:29.617Z,16.77
2022-10-12T17:27:56.132Z,13.77
2022-10-12T17:30:22.840Z,20.17
2022-10-12T17:32:51.483Z,18.33
2022-10-12T17:35:18.122Z,19.80
2022-10-12T17:37:44.622Z,32.72
2022-10-12T17:40:11.486Z,23.23
2022-10-12T17:42:38.021Z,22.08
2022-10-12T17:45:04.953Z,21.25
2022-10-12T17:47:31.439Z,23.02
2022-10-12T17:50:00.240Z,19.25
2022-10-12T17:52:26.877Z,23.90
2022-10-12T17:54:53.403Z,26.77
2022-10-12T17:57:20.369Z,19.77
2022-10-12T17:59:47.115Z,15.10
2022-10-12T18:02:13.574Z,17.08
2022-10-12T18:04:40.078Z,19.25
2022-10-12T18:07:06.582Z,14.18
2022-10-12T18:09:33.122Z,18.92
2022-10-12T18:11:59.627Z,18.80
2022-10-12T18:14:26.129Z,30.05
2022-10-12T18:16:54.294Z,46.25
2022-10-12T18:19:20.832Z,78.20
2022-10-12T18:21:49.634Z,142.35
2022-10-12T18:24:18.720Z,116.35
2022-10-12T18:26:47.074Z,86.40
2022-10-12T18:29:14.229Z,110.57
2022-10-12T18:31:40.737Z,70.07
2022-10-12T18:34:07.273Z,49.92
2022-10-12T18:36:34.308Z,46.90
2022-10-12T18:39:02.790Z,31.35
2022-10-12T18:41:32.018Z,30.90
2022-10-12T18:44:00.386Z,27.27
2022-10-12T18:46:28.656Z,26.25
2022-10-12T18:48:55.997Z,37.28
2022-10-12T18:51:25.078Z,31.30
2022-10-12T18:53:51.814Z,34.50
2022-10-12T18:56:19.453Z,28.00
2022-10-12T18:58:46.331Z,28.48
2022-10-12T19:01:15.963Z,22.55
2022-10-12T19:03:42.571Z,28.50
2022-10-12T19:06:15.107Z,35.85
2022-10-12T19:08:43.504Z,29.30
2022-10-12T19:11:11.669Z,25.23
2022-10-12T19:13:41.492Z,31.02
2022-10-12T19:16:12.136Z,28.52
2022-10-12T19:18:40.067Z,30.65
2022-10-12T19:21:14.785Z,26.40
2022-10-12T19:23:44.637Z,23.85
2022-10-12T19:26:27.096Z,21.30
2022-10-12T19:28:55.703Z,14.77
2022-10-12T19:31:37.484Z,19.85
2022-10-12T19:34:06.644Z,24.63
2022-10-12T19:36:34.061Z,24.20
2022-10-12T19:39:03.859Z,18.10
2022-10-12T19:41:31.200Z,22.35
2022-10-12T19:43:58.691Z,17.67
2022-10-12T19:46:25.262Z,13.40
2022-10-12T19:48:53.998Z,15.55
2022-10-12T19:51:22.109Z,15.18
2022-10-12T19:53:53.155Z,16.13
2022-10-12T19:56:22.948Z,19.90
2022-10-12T19:58:51.588Z,18.13
2022-10-12T20:01:21.391Z,13.77
2022-10-12T20:03:50.871Z,15.85
2022-10-12T20:06:23.086Z,15.35
2022-10-12T20:08:51.982Z,18.02
2022-10-12T20:11:23.785Z,13.68
2022-10-12T20:13:53.690Z,16.95
2022-10-12T20:16:20.731Z,15.40
2022-10-12T20:18:48.006Z,12.98
2022-10-12T20:21:19.225Z,18.30
2022-10-12T20:23:46.647Z,15.02
2022-10-12T20:26:25.241Z,24.10
2022-10-12T20:28:52.854Z,23.15
2022-10-12T20:31:23.128Z,18.02
2022-10-12T20:33:53.807Z,59.30
2022-10-12T20:36:27.304Z,41.63
2022-10-12T20:38:54.090Z,26.70
2022-10-12T20:41:23.698Z,30.17
2022-10-12T20:43:57.168Z,23.63
2022-10-12T20:46:24.170Z,30.08
2022-10-12T20:48:54.594Z,27.90
2022-10-12T20:51:27.608Z,41.88
2022-10-12T20:53:55.204Z,73.32
2022-10-12T20:56:21.705Z,62.67
2022-10-12T20:58:48.193Z,70.03
2022-10-12T21:01:16.721Z,57.60
2022-10-12T21:03:45.566Z,43.05
2022-10-12T21:06:16.252Z,34.17
2022-10-12T21:08:43.039Z,32.08
2022-10-12T21:11:10.707Z,23.90
2022-10-12T21:13:40.948Z,30.13
2022-10-12T21:16:11.934Z,33.63
2022-10-12T21:18:40.207Z,31.92
2022-10-12T21:21:13.241Z,29.88
2022-10-12T21:23:43.466Z,28.90
2022-10-12T21:26:14.296Z,32.03
2022-10-12T21:28:41.150Z,36.25
2022-10-12T21:31:08.376Z,30.38
2022-10-12T21:33:38.855Z,29.42
2022-10-12T21:36:11.340Z,30.73
2022-10-12T21:38:38.650Z,25.55
2022-10-12T21:41:06.224Z,22.60
2022-10-12T21:43:32.811Z,21.55
2022-10-12T21:46:04.360Z,21.60
2022-10-12T21:48:32.235Z,20.15
2022-10-12T21:51:01.473Z,19.73
2022-10-12T21:53:28.392Z,17.90
2022-10-12T21:55:54.901Z,16.55
2022-10-12T21:58:21.403Z,15.18
2022-10-12T22:00:47.892Z,15.15
2022-10-12T22:03:14.432Z,15.18
2022-10-12T22:05:44.529Z,15.27
2022-10-12T22:08:13.710Z,10.35
2022-10-12T22:10:40.148Z,16.40
2022-10-12T22:13:07.549Z,15.25
2022-10-12T22:15:34.779Z,14.18
2022-10-12T22:18:01.279Z,17.25
2022-10-12T22:20:27.697Z,19.63
2022-10-12T22:22:54.119Z,22.70
2022-10-12T22:25:20.518Z,13.82
2022-10-12T22:27:46.997Z,11.52
2022-10-12T22:30:13.669Z,21.10
2022-10-12T22:32:40.111Z,17.25
2022-10-12T22:35:07.043Z,13.55
2022-10-12T22:37:35.745Z,15.73
2022-10-12T22:40:02.806Z,19.65
2022-10-12T22:42:29.283Z,18.75
2022-10-12T22:44:56.633Z,20.20
2022-10-12T22:47:25.595Z,21.00
2022-10-12T22:49:52.177Z,21.25
2022-10-12T22:52:18.952Z,19.70
2022-10-12T22:54:45.586Z,24.23
2022-10-12T22:57:12.461Z,21.05
2022-10-12T22:59:38.929Z,23.92
2022-10-12T23:02:05.331Z,23.63
2022-10-12T23:04:31.848Z,25.15
2022-10-12T23:06:58.305Z,28.00
2022-10-12T23:09:27.189Z,25.13
2022-10-12T23:11:53.591Z,23.23
2022-10-12T23:14:19.976Z,30.92
2022-10-12T23:16:46.385Z,31.08
2022-10-12T23:19:12.808Z,23.35
2022-10-12T23:21:39.266Z,26.30
2022-10-12T23:24:06.271Z,23.33
2022-10-12T23:26:33.861Z,30.77
2022-10-12T23:29:03.430Z,22.90
2022-10-12T23:31:31.046Z,24.98
2022-10-12T23:34:03.835Z,27.98
2022-10-12T23:36:30.536Z,27.63
2022-10-12T23:38:59.927Z,25.25
2022-10-12T23:41:26.394Z,26.00
2022-10-12T23:43:52.897Z,26.15
2022-10-12T23:46:19.443Z,26.35
2022-10-12T23:48:45.888Z,22.55
2022-10-12T23:51:14.839Z,24.90
2022-10-12T23:53:43.581Z,28.23
2022-10-12T23:56:11.130Z,26.42
2022-10-12T23:58:37.671Z,27.67
